Time;durP1;ratioP1;P1;durP2;ratioP2;P2;SDS_P1;SDS_P2;PMS_P1;PMS_P2;Temp;Humidity;BMP_temperature;BMP_pressure;BME280_temperature;BME280_humidity;BME280_pressure;Samples;Min_cycle;Max_cycle;Signal;HPM_P1;HPM_P2
2021/11/19 00:00:35;;;;;;;21.90;12.80;;;1.80;99.90;;;;;;4973614;28;20134;-73
2021/11/19 00:03:08;;;;;;;20.25;13.40;;;1.90;99.90;;;;;;4956583;28;20576;-73
2021/11/19 00:05:42;;;;;;;21.50;13.52;;;1.90;99.90;;;;;;4968795;28;20051;-73
2021/11/19 00:08:19;;;;;;;23.45;13.73;;;1.90;99.90;;;;;;4952870;29;20498;-73
2021/11/19 00:10:52;;;;;;;20.27;14.35;;;1.90;99.90;;;;;;4963948;28;20042;-73
2021/11/19 00:13:25;;;;;;;20.33;13.05;;;1.90;99.90;;;;;;4972131;28;20049;-74
2021/11/19 00:15:58;;;;;;;20.95;12.10;;;1.90;99.90;;;;;;4973245;28;20466;-72
2021/11/19 00:18:25;;;;;;;21.40;13.98;;;1.90;99.90;;;;;;4967203;28;20097;-72
2021/11/19 00:20:53;;;;;;;23.55;13.85;;;1.80;99.90;;;;;;4954957;28;20141;-73
2021/11/19 00:23:21;;;;;;;21.15;14.07;;;1.80;99.90;;;;;;4970925;28;20150;-73
2021/11/19 00:25:48;;;;;;;22.42;13.05;;;1.80;99.90;;;;;;4970961;28;20145;-72
2021/11/19 00:28:21;;;;;;;24.02;13.88;;;1.80;99.90;;;;;;4957106;28;20133;-72
2021/11/19 00:30:54;;;;;;;19.45;13.02;;;1.80;99.90;;;;;;4988409;28;20045;-72
2021/11/19 00:33:26;;;;;;;21.60;13.27;;;1.80;99.90;;;;;;4958506;28;20383;-72
2021/11/19 00:35:59;;;;;;;19.77;12.73;;;1.80;99.90;;;;;;4972824;28;20047;-72
2021/11/19 00:38:31;;;;;;;20.70;13.35;;;1.70;99.90;;;;;;4956697;28;20051;-72
2021/11/19 00:41:06;;;;;;;19.15;13.50;;;1.70;99.90;;;;;;4971688;28;20065;-73
2021/11/19 00:43:39;;;;;;;21.48;13.50;;;1.70;99.90;;;;;;4971705;28;20088;-71
2021/11/19 00:46:13;;;;;;;19.08;14.13;;;1.60;99.90;;;;;;4957702;28;20138;-73
2021/11/19 00:48:45;;;;;;;;;;;1.60;99.90;;;;;;4988612;28;20133;-72
2021/11/19 00:51:28;;;;;;;19.02;12.40;;;1.50;99.90;;;;;;4987544;28;19972;-73
2021/11/19 00:54:01;;;;;;;24.80;15.15;;;1.50;99.90;;;;;;4971431;28;20117;-73
2021/11/19 00:56:37;;;;;;;19.30;12.98;;;1.50;99.90;;;;;;4986949;28;20038;-72
2021/11/19 00:59:12;;;;;;;22.70;13.73;;;1.50;99.90;;;;;;4971246;28;20138;-72
2021/11/19 01:01:53;;;;;;;20.23;14.45;;;1.40;99.90;;;;;;4970992;28;20082;-72
2021/11/19 01:04:26;;;;;;;21.00;14.30;;;1.40;99.90;;;;;;4971578;28;20490;-73
2021/11/19 01:06:58;;;;;;;19.85;14.43;;;1.40;99.90;;;;;;4972709;28;20149;-73
2021/11/19 01:09:29;;;;;;;22.77;14.07;;;1.30;99.90;;;;;;4971669;28;20050;-73
2021/11/19 01:12:03;;;;;;;22.58;13.60;;;1.30;99.90;;;;;;4971178;28;20042;-72
2021/11/19 01:14:49;;;;;;;19.63;13.43;;;1.20;99.90;;;;;;4971651;28;20039;-73
2021/11/19 01:17:30;;;;;;;20.00;13.25;;;1.10;99.90;;;;;;4972673;28;20082;-72
2021/11/19 01:20:36;;;;;;;21.13;13.35;;;1.10;99.90;;;;;;4987665;28;20053;-73
2021/11/19 01:23:05;;;;;;;20.60;12.88;;;1.10;99.90;;;;;;4971101;28;20107;-73
2021/11/19 01:25:33;;;;;;;18.63;12.45;;;1.10;99.90;;;;;;4971488;28;20494;-72
2021/11/19 01:28:01;;;;;;;17.95;11.95;;;1.10;99.90;;;;;;4955393;28;20074;-71
2021/11/19 01:30:46;;;;;;;21.63;13.25;;;1.00;99.90;;;;;;4971284;28;20118;-73
2021/11/19 01:33:18;;;;;;;17.65;11.35;;;0.90;99.90;;;;;;4955410;28;20081;-72
2021/11/19 01:36:05;;;;;;;21.65;12.85;;;0.90;99.90;;;;;;4987519;28;20049;-72
2021/11/19 01:38:47;;;;;;;19.60;11.85;;;1.00;99.90;;;;;;4957282;28;20046;-73
2021/11/19 01:41:42;;;;;;;20.40;12.25;;;1.10;99.90;;;;;;4957067;28;20053;-72
2021/11/19 01:44:24;;;;;;;30.77;16.98;;;1.10;99.90;;;;;;4956051;28;20071;-72
2021/11/19 01:46:58;;;;;;;40.20;17.75;;;1.20;99.90;;;;;;4955084;28;20057;-73
2021/11/19 01:49:32;;;;;;;36.15;17.67;;;1.50;99.90;;;;;;4987240;28;20039;-73
2021/11/19 01:52:05;;;;;;;38.47;19.45;;;1.70;99.90;;;;;;4970767;28;20078;-72
2021/11/19 01:55:10;;;;;;;36.10;18.70;;;1.80;99.90;;;;;;4987089;28;20051;-73
2021/11/19 01:57:55;;;;;;;32.58;16.95;;;2.00;99.90;;;;;;4944673;28;20409;-73
2021/11/19 02:00:43;;;;;;;31.55;15.75;;;1.90;99.90;;;;;;4970608;28;20502;-73
2021/11/19 02:03:15;;;;;;;31.92;16.05;;;1.80;99.90;;;;;;4970186;28;20047;-72
2021/11/19 02:06:00;;;;;;;28.90;14.73;;;1.80;99.90;;;;;;4955287;28;20714;-73
2021/11/19 02:08:39;;;;;;;26.88;15.43;;;1.80;99.90;;;;;;4970286;28;20039;-72
2021/11/19 02:11:13;;;;;;;27.23;16.00;;;1.80;99.90;;;;;;4988539;28;20429;-73
2021/11/19 02:14:28;;;;;;;24.42;14.23;;;1.80;99.90;;;;;;4974308;28;20050;-73
2021/11/19 02:17:01;;;;;;;21.15;14.10;;;1.80;99.90;;;;;;4974537;28;20043;-72
2021/11/19 02:19:41;;;;;;;22.08;13.45;;;1.80;99.90;;;;;;4990571;28;20046;-72
2021/11/19 02:22:28;;;;;;;22.00;13.00;;;1.70;99.90;;;;;;4973764;28;20196;-73
2021/11/19 02:25:08;;;;;;;20.50;12.07;;;1.70;99.90;;;;;;4990251;28;20065;-72
2021/11/19 02:27:56;;;;;;;20.80;12.57;;;1.60;99.90;;;;;;4973929;28;20042;-73
2021/11/19 02:30:27;;;;;;;40.00;21.88;;;1.60;99.90;;;;;;4973024;28;20074;-73
2021/11/19 02:33:05;;;;;;;39.95;22.15;;;1.60;99.90;;;;;;4974033;28;20043;-73
2021/11/19 02:35:51;;;;;;;29.15;16.75;;;1.50;99.90;;;;;;4974456;28;20046;-73
2021/11/19 02:38:34;;;;;;;19.10;12.80;;;1.40;99.90;;;;;;4975392;28;20057;-72
2021/11/19 02:41:02;;;;;;;23.08;13.82;;;1.30;99.90;;;;;;4990396;28;20137;-72
2021/11/19 02:43:51;;;;;;;28.10;16.75;;;1.20;99.90;;;;;;4973974;28;20043;-72
2021/11/19 02:46:30;;;;;;;26.77;14.18;;;1.20;99.90;;;;;;4990403;28;20074;-73
2021/11/19 02:48:57;;;;;;;20.20;13.15;;;1.10;99.90;;;;;;4974399;28;20043;-72
2021/11/19 02:51:27;;;;;;;21.58;13.38;;;1.10;99.90;;;;;;4989856;28;20426;-72
2021/11/19 02:54:00;;;;;;;20.23;12.98;;;1.00;99.90;;;;;;4974033;28;20045;-73
2021/11/19 02:56:28;;;;;;;29.77;16.77;;;1.00;99.90;;;;;;4974049;28;20043;-72
2021/11/19 02:58:57;;;;;;;20.33;13.02;;;1.00;99.90;;;;;;4990278;28;20074;-72
2021/11/19 03:01:32;;;;;;;18.13;12.10;;;1.00;99.90;;;;;;4958380;28;20046;-73
2021/11/19 03:04:04;;;;;;;17.88;12.27;;;1.00;99.90;;;;;;4958605;28;20094;-73
2021/11/19 03:06:45;;;;;;;20.77;13.05;;;1.00;99.90;;;;;;4989277;28;20043;-72
2021/11/19 03:09:21;;;;;;;19.65;12.70;;;0.90;99.90;;;;;;4973774;28;20045;-73
2021/11/19 03:11:54;;;;;;;19.88;12.23;;;0.90;99.90;;;;;;4957979;28;20043;-73
2021/11/19 03:14:26;;;;;;;17.15;11.38;;;0.90;99.90;;;;;;4973759;28;20043;-71
2021/11/19 03:16:55;;;;;;;18.98;12.35;;;0.90;99.90;;;;;;4973761;28;20090;-73
2021/11/19 03:19:23;;;;;;;17.75;11.07;;;0.90;99.90;;;;;;4989806;28;20137;-72
2021/11/19 03:21:51;;;;;;;16.30;11.07;;;0.90;99.90;;;;;;4973053;28;20429;-73
2021/11/19 03:24:20;;;;;;;18.38;11.88;;;0.90;99.90;;;;;;4973504;28;20055;-73
2021/11/19 03:26:52;;;;;;;;;;;0.90;99.90;;;;;;4974092;28;20094;-72
2021/11/19 03:29:21;;;;;;;18.25;12.25;;;0.90;99.90;;;;;;4973368;28;19933;-73
2021/11/19 03:31:55;;;;;;;21.85;12.23;;;0.80;99.90;;;;;;4974281;28;20039;-73
2021/11/19 03:34:27;;;;;;;24.50;14.65;;;0.80;99.90;;;;;;4974606;28;20047;-73
2021/11/19 03:36:59;;;;;;;22.63;13.73;;;0.80;99.90;;;;;;4973579;28;20051;-73
2021/11/19 03:39:32;;;;;;;26.20;14.80;;;0.80;99.90;;;;;;4973236;28;20101;-73
2021/11/19 03:42:05;;;;;;;26.05;14.95;;;0.90;99.90;;;;;;4989168;28;20043;-72
2021/11/19 03:44:46;;;;;;;27.58;14.65;;;0.90;99.90;;;;;;4957994;28;20062;-72
2021/11/19 03:47:18;;;;;;;22.63;14.27;;;1.00;99.90;;;;;;4973485;28;20054;-73
2021/11/19 03:49:47;;;;;;;22.67;13.75;;;1.00;99.90;;;;;;4973183;28;20047;-73
2021/11/19 03:52:32;;;;;;;24.38;14.00;;;1.00;99.90;;;;;;4957431;28;20062;-71
2021/11/19 03:55:05;;;;;;;21.15;13.82;;;1.10;99.90;;;;;;4972917;28;20054;-73
2021/11/19 03:57:32;;;;;;;25.27;13.82;;;1.00;99.90;;;;;;4973067;28;20050;-72
2021/11/19 04:00:11;;;;;;;24.92;14.80;;;1.00;99.90;;;;;;4974143;28;20122;-72
2021/11/19 04:02:47;;;;;;;22.83;14.60;;;1.00;99.90;;;;;;4986481;28;20046;-72
2021/11/19 04:05:14;;;;;;;26.88;14.80;;;1.00;99.90;;;;;;4978028;28;20429;-72
2021/11/19 04:07:46;;;;;;;25.25;14.32;;;1.00;99.90;;;;;;4987683;28;20073;-73
2021/11/19 04:10:22;;;;;;;24.50;14.18;;;1.10;99.90;;;;;;4987059;28;20046;-73
2021/11/19 04:12:49;;;;;;;27.52;17.45;;;1.10;99.90;;;;;;4956025;28;20053;-73
2021/11/19 04:15:30;;;;;;;24.98;14.18;;;1.10;99.90;;;;;;4972419;28;20038;-72
2021/11/19 04:18:04;;;;;;;24.25;14.70;;;1.10;99.90;;;;;;4957444;28;20078;-72
2021/11/19 04:20:37;;;;;;;20.75;14.23;;;1.10;99.90;;;;;;4988281;28;20047;-73
2021/11/19 04:23:09;;;;;;;21.95;12.80;;;1.10;99.90;;;;;;4971926;28;20395;-72
2021/11/19 04:25:43;;;;;;;20.45;12.68;;;1.10;99.90;;;;;;4966086;28;20133;-72
2021/11/19 04:28:15;;;;;;;22.35;13.48;;;1.00;99.90;;;;;;4978062;28;20039;-73
2021/11/19 04:31:02;;;;;;;21.85;12.88;;;1.00;99.90;;;;;;4986180;28;20039;-73
2021/11/19 04:33:37;;;;;;;19.17;11.55;;;1.00;99.90;;;;;;4972192;28;20046;-73
2021/11/19 04:36:10;;;;;;;17.70;11.50;;;1.40;99.90;;;;;;4988293;28;20131;-73
2021/11/19 04:38:42;;;;;;;18.05;11.15;;;1.80;99.90;;;;;;4972178;28;20098;-73
2021/11/19 04:41:16;;;;;;;16.55;10.77;;;1.80;99.90;;;;;;4987928;28;20050;-73
2021/11/19 04:43:48;;;;;;;25.25;12.57;;;1.70;99.90;;;;;;4971904;28;20106;-70
2021/11/19 04:46:15;;;;;;;19.27;12.73;;;1.60;99.90;;;;;;4954218;28;20518;-72
2021/11/19 04:48:47;;;;;;;18.48;12.25;;;1.50;99.90;;;;;;4971871;28;20042;-73
2021/11/19 04:51:25;;;;;;;19.55;13.27;;;1.40;99.90;;;;;;4971274;28;20058;-73
2021/11/19 04:53:58;;;;;;;19.40;11.70;;;1.30;99.90;;;;;;4970897;28;20042;-72
2021/11/19 04:56:30;;;;;;;16.52;11.43;;;1.20;99.90;;;;;;4987598;28;20054;-73
2021/11/19 04:59:03;;;;;;;18.10;11.55;;;1.00;99.90;;;;;;4971209;28;20043;-73
2021/11/19 05:01:37;;;;;;;16.97;12.00;;;0.90;99.90;;;;;;4987240;28;20074;-72
2021/11/19 05:04:20;;;;;;;16.65;10.73;;;0.90;99.90;;;;;;4970973;28;20295;-73
2021/11/19 05:06:48;;;;;;;14.88;10.77;;;0.80;99.90;;;;;;4987441;28;20134;-73
2021/11/19 05:09:16;;;;;;;16.00;11.05;;;0.80;99.90;;;;;;4970849;28;20098;-73
2021/11/19 05:12:04;;;;;;;17.95;12.20;;;0.70;99.90;;;;;;4970794;28;20043;-74
2021/11/19 05:14:39;;;;;;;16.02;10.68;;;0.70;99.90;;;;;;4971917;28;20050;-72
2021/11/19 05:17:11;;;;;;;20.00;13.43;;;0.70;99.90;;;;;;4986729;28;20445;-73
2021/11/19 05:19:38;;;;;;;23.08;13.43;;;0.70;99.90;;;;;;4955146;28;20510;-73
2021/11/19 05:22:11;;;;;;;23.85;13.88;;;0.60;99.90;;;;;;4962670;28;20070;-72
2021/11/19 05:24:38;;;;;;;21.35;11.95;;;0.60;99.90;;;;;;4970872;28;20053;-73
2021/11/19 05:27:10;;;;;;;19.23;11.95;;;0.60;99.90;;;;;;4967753;28;22055;-73
2021/11/19 05:29:42;;;;;;;21.63;12.50;;;0.60;99.90;;;;;;4967752;28;20051;-73
2021/11/19 05:32:15;;;;;;;17.73;11.15;;;0.60;99.90;;;;;;4963049;28;20043;-73
2021/11/19 05:34:47;;;;;;;20.13;12.05;;;0.60;99.90;;;;;;4949696;28;20466;-73
2021/11/19 05:37:19;;;;;;;19.02;12.68;;;0.50;99.90;;;;;;4956253;28;20146;-72
2021/11/19 05:39:46;;;;;;;18.83;12.15;;;0.50;99.90;;;;;;4986314;28;20046;-73
2021/11/19 05:42:18;;;;;;;19.98;11.82;;;0.50;99.90;;;;;;4954824;28;20043;-73
2021/11/19 05:44:51;;;;;;;20.83;13.32;;;0.40;99.90;;;;;;4953973;28;20045;-73
2021/11/19 05:47:34;;;;;;;23.90;14.30;;;0.50;99.90;;;;;;4970866;28;20051;-73
2021/11/19 05:50:17;;;;;;;28.45;15.65;;;0.60;99.90;;;;;;4952207;28;20045;-74
2021/11/19 05:52:44;;;;;;;28.60;16.60;;;0.60;99.90;;;;;;4971060;28;20441;-73
2021/11/19 05:55:16;;;;;;;30.50;16.38;;;0.70;99.90;;;;;;4986272;28;20043;-73
2021/11/19 05:57:43;;;;;;;30.83;16.67;;;0.70;99.90;;;;;;4986177;28;20043;-73
2021/11/19 06:00:23;;;;;;;35.70;17.90;;;0.80;99.90;;;;;;4971626;28;20039;-73
2021/11/19 06:03:06;;;;;;;33.80;17.63;;;0.90;99.90;;;;;;4985940;28;20393;-73
2021/11/19 06:05:53;;;;;;;36.95;18.27;;;0.90;99.90;;;;;;4971321;28;20043;-73
2021/11/19 06:08:27;;;;;;;35.05;18.10;;;1.00;99.90;;;;;;4970021;28;20047;-72
2021/11/19 06:10:59;;;;;;;42.97;20.63;;;1.00;99.90;;;;;;4986100;28;20078;-73
2021/11/19 06:13:35;;;;;;;41.25;20.17;;;1.10;99.90;;;;;;4971017;28;20527;-74
2021/11/19 06:16:15;;;;;;;38.97;20.27;;;1.20;99.90;;;;;;4971320;28;20122;-73
2021/11/19 06:18:52;;;;;;;38.38;19.20;;;1.20;99.90;;;;;;4970181;28;20593;-73
2021/11/19 06:21:27;;;;;;;39.35;20.65;;;1.20;99.90;;;;;;4984778;28;20142;-73
2021/11/19 06:24:04;;;;;;;40.83;19.75;;;1.20;99.90;;;;;;4965848;28;20035;-74
2021/11/19 06:26:32;;;;;;;37.63;19.10;;;1.30;99.90;;;;;;4961783;28;20054;-73
2021/11/19 06:29:04;;;;;;;35.73;19.27;;;1.30;99.90;;;;;;4983095;28;20095;-73
2021/11/19 06:31:36;;;;;;;34.03;19.10;;;1.30;99.90;;;;;;4984765;28;20294;-74
2021/11/19 06:34:04;;;;;;;29.92;17.27;;;1.20;99.90;;;;;;4960017;28;20066;-73
2021/11/19 06:36:40;;;;;;;32.13;18.40;;;1.10;99.90;;;;;;4951304;28;20507;-73
2021/11/19 06:39:15;;;;;;;29.60;18.70;;;1.00;99.90;;;;;;4957921;28;20138;-73
2021/11/19 06:41:47;;;;;;;29.17;17.77;;;1.00;99.90;;;;;;4970900;28;20050;-74
2021/11/19 06:44:43;;;;;;;30.27;17.60;;;0.90;99.90;;;;;;4956194;28;20043;-73
2021/11/19 06:47:45;;;;;;;32.08;15.25;;;0.80;99.90;;;;;;4966370;28;20046;-74
2021/11/19 06:50:38;;;;;;;24.55;14.93;;;0.80;99.90;;;;;;4984389;28;20072;-73
2021/11/19 06:53:35;;;;;;;24.17;15.45;;;0.70;99.90;;;;;;4967870;28;20477;-72
2021/11/19 06:56:30;;;;;;;26.13;15.68;;;0.60;99.90;;;;;;4969124;28;20054;-72
2021/11/19 06:59:09;;;;;;;24.67;14.93;;;0.60;99.90;;;;;;4959335;28;20047;-72
2021/11/19 07:01:41;;;;;;;25.70;16.05;;;0.60;99.90;;;;;;4989087;28;20500;-72
2021/11/19 07:04:13;;;;;;;27.52;18.13;;;0.60;99.90;;;;;;4969695;28;20062;-73
2021/11/19 07:06:46;;;;;;;31.42;18.98;;;0.60;99.90;;;;;;4973697;28;20050;-74
2021/11/19 07:09:15;;;;;;;23.45;14.82;;;0.70;99.90;;;;;;4973580;28;20042;-73
2021/11/19 07:11:50;;;;;;;21.77;14.32;;;0.70;99.90;;;;;;4970137;28;20576;-72
2021/11/19 07:14:17;;;;;;;21.80;14.90;;;0.70;99.90;;;;;;4970255;28;20583;-72
2021/11/19 07:16:49;;;;;;;23.13;14.50;;;0.70;99.90;;;;;;4970513;28;20143;-72
2021/11/19 07:19:23;;;;;;;19.92;13.02;;;0.70;99.90;;;;;;4972008;28;20098;-72
2021/11/19 07:21:56;;;;;;;;;;;0.70;99.90;;;;;;4987650;28;20156;-73
2021/11/19 07:24:30;;;;;;;;;;;0.70;99.90;;;;;;4969019;28;20588;-73
2021/11/19 07:27:11;;;;;;;21.27;13.38;;;0.70;99.90;;;;;;4986088;28;19923;-72
2021/11/19 07:29:39;;;;;;;24.13;15.75;;;0.70;99.90;;;;;;4985925;28;20122;-73
2021/11/19 07:32:29;;;;;;;30.95;21.25;;;0.80;99.90;;;;;;4954697;29;20058;-72
2021/11/19 07:35:15;;;;;;;25.80;17.17;;;0.80;99.90;;;;;;4954195;29;20050;-72
2021/11/19 07:38:08;;;;;;;26.90;17.20;;;0.90;99.90;;;;;;4966101;28;20043;-73
2021/11/19 07:40:54;;;;;;;23.77;16.17;;;1.00;99.90;;;;;;4967178;28;20163;-73
2021/11/19 07:43:46;;;;;;;29.42;17.88;;;1.00;99.90;;;;;;4978613;28;20055;-72
2021/11/19 07:46:22;;;;;;;28.63;17.50;;;1.00;99.90;;;;;;4985907;28;20043;-73
2021/11/19 07:49:03;;;;;;;22.95;14.43;;;1.00;99.90;;;;;;4974292;28;20047;-72
2021/11/19 07:51:43;;;;;;;24.38;15.48;;;1.10;99.90;;;;;;4957582;28;20484;-73
2021/11/19 07:54:15;;;;;;;27.10;15.75;;;1.10;99.90;;;;;;4972405;28;20050;-73
2021/11/19 07:56:47;;;;;;;25.30;16.45;;;1.10;99.90;;;;;;4972760;28;20082;-72
2021/11/19 07:59:25;;;;;;;;;;;1.10;99.90;;;;;;4973095;28;20058;-73
2021/11/19 08:01:59;;;;;;;27.17;17.95;;;1.20;99.90;;;;;;4957023;28;19921;-73
2021/11/19 08:04:33;;;;;;;29.30;17.15;;;1.20;99.90;;;;;;4972119;28;20513;-73
2021/11/19 08:07:13;;;;;;;29.20;17.70;;;1.20;99.90;;;;;;4972629;28;20409;-73
2021/11/19 08:09:47;;;;;;;29.05;16.45;;;1.30;99.90;;;;;;4986989;28;20058;-73
2021/11/19 08:12:36;;;;;;;29.10;16.73;;;1.40;99.90;;;;;;4972905;28;20054;-73
2021/11/19 08:15:15;;;;;;;24.95;14.35;;;1.40;99.90;;;;;;4957587;28;20053;-73
2021/11/19 08:17:50;;;;;;;21.67;13.60;;;1.40;99.90;;;;;;4952900;28;20031;-73
2021/11/19 08:20:36;;;;;;;24.70;15.30;;;1.50;99.90;;;;;;4970127;28;20462;-73
2021/11/19 08:23:14;;;;;;;29.17;18.17;;;1.50;99.90;;;;;;4969047;28;20049;-74
2021/11/19 08:25:42;;;;;;;35.17;22.02;;;1.60;99.90;;;;;;4956768;28;20394;-73
2021/11/19 08:28:10;;;;;;;35.85;21.85;;;1.90;99.90;;;;;;4972928;28;20043;-73
2021/11/19 08:30:42;;;;;;;39.38;26.10;;;2.00;99.90;;;;;;4988435;28;20489;-73
2021/11/19 08:33:10;;;;;;;52.25;29.90;;;2.00;99.90;;;;;;4973733;28;20047;-73
2021/11/19 08:35:42;;;;;;;39.25;25.02;;;2.00;99.90;;;;;;4972887;28;20129;-73
2021/11/19 08:38:16;;;;;;;33.53;19.88;;;2.10;99.90;;;;;;4988948;28;20409;-73
2021/11/19 08:40:45;;;;;;;41.88;22.98;;;2.10;99.90;;;;;;4972735;28;20082;-73
2021/11/19 08:43:24;;;;;;;52.88;26.00;;;2.10;99.90;;;;;;4972518;28;20043;-73
2021/11/19 08:45:57;;;;;;;55.08;29.35;;;2.20;99.90;;;;;;4972706;28;20461;-73
2021/11/19 08:48:27;;;;;;;45.35;25.60;;;2.30;99.90;;;;;;4970321;28;20073;-73
2021/11/19 08:51:02;;;;;;;38.05;22.38;;;2.30;99.90;;;;;;4956796;28;20475;-73
2021/11/19 08:53:34;;;;;;;31.52;18.65;;;2.40;99.90;;;;;;4972076;28;20042;-73
2021/11/19 08:56:07;;;;;;;33.75;18.30;;;2.50;99.90;;;;;;4973628;28;20113;-73
2021/11/19 08:58:41;;;;;;;29.07;18.63;;;2.60;99.90;;;;;;4972364;28;20142;-72
2021/11/19 09:01:17;;;;;;;33.95;20.35;;;2.60;99.90;;;;;;4972233;28;20152;-73
2021/11/19 09:03:49;;;;;;;31.10;19.80;;;2.70;99.90;;;;;;4971860;28;20084;-73
2021/11/19 09:06:22;;;;;;;38.75;22.10;;;2.80;99.90;;;;;;4988357;28;20494;-73
2021/11/19 09:08:50;;;;;;;34.55;21.70;;;2.80;99.90;;;;;;4973338;28;20042;-73
2021/11/19 09:11:24;;;;;;;44.63;26.52;;;2.90;99.90;;;;;;4973265;28;20144;-73
2021/11/19 09:13:53;;;;;;;35.45;23.05;;;2.90;99.90;;;;;;4971771;28;20081;-73
2021/11/19 09:16:30;;;;;;;30.95;20.73;;;2.90;99.90;;;;;;4988120;28;20042;-73
2021/11/19 09:19:05;;;;;;;26.38;17.02;;;3.00;99.90;;;;;;4971832;28;20572;-73
2021/11/19 09:21:56;;;;;;;29.02;18.50;;;3.00;99.90;;;;;;4971739;28;20146;-73
2021/11/19 09:24:28;;;;;;;25.58;16.98;;;3.00;99.90;;;;;;4987925;28;20421;-73
2021/11/19 09:27:10;;;;;;;31.38;19.05;;;3.10;99.90;;;;;;4973520;28;20125;-73
2021/11/19 09:29:42;;;;;;;29.25;17.42;;;3.10;99.90;;;;;;4973162;28;20466;-73
2021/11/19 09:32:10;;;;;;;28.13;17.80;;;3.20;99.90;;;;;;4973099;28;20109;-73
2021/11/19 09:34:47;;;;;;;26.30;17.45;;;3.30;99.90;;;;;;4987684;28;20541;-73
2021/11/19 09:37:19;;;;;;;25.88;17.40;;;3.30;99.90;;;;;;4956274;28;20050;-73
2021/11/19 09:39:52;;;;;;;27.02;17.92;;;3.40;99.90;;;;;;4973028;28;20126;-73
2021/11/19 09:42:43;;;;;;;28.35;18.42;;;3.50;99.90;;;;;;4987322;28;20073;-73
2021/11/19 09:45:34;;;;;;;32.20;21.27;;;3.60;99.90;;;;;;4971661;28;20070;-73
2021/11/19 09:48:28;;;;;;;27.33;17.67;;;3.70;99.90;;;;;;4972817;28;20123;-73
2021/11/19 09:51:19;;;;;;;31.23;18.77;;;3.70;99.90;;;;;;4972721;28;20085;-73
2021/11/19 09:54:29;;;;;;;30.70;18.08;;;3.70;99.90;;;;;;4972512;28;20046;-73
2021/11/19 09:57:36;;;;;;;29.52;18.23;;;3.80;99.90;;;;;;4971513;28;20053;-73
2021/11/19 10:00:28;;;;;;;30.88;18.42;;;3.80;99.90;;;;;;4971321;28;20046;-73
2021/11/19 10:03:27;;;;;;;29.10;18.58;;;3.90;99.90;;;;;;4987314;28;20585;-73
2021/11/19 10:06:04;;;;;;;28.83;18.38;;;3.90;99.90;;;;;;4955527;28;20560;-73
2021/11/19 10:08:42;;;;;;;28.10;17.77;;;4.00;99.90;;;;;;4955611;28;20058;-73
2021/11/19 10:11:41;;;;;;;30.48;19.02;;;4.10;99.90;;;;;;4972505;28;20134;-73
2021/11/19 10:14:23;;;;;;;28.45;18.45;;;4.20;99.90;;;;;;4967084;28;20082;-73
2021/11/19 10:17:22;;;;;;;31.40;19.27;;;4.30;99.90;;;;;;4955961;28;20085;-73
2021/11/19 10:19:59;;;;;;;29.77;18.85;;;4.40;99.90;;;;;;4986846;28;20127;-73
2021/11/19 10:22:40;;;;;;;33.72;20.13;;;4.50;99.90;;;;;;4972346;28;20130;-73
2021/11/19 10:25:15;;;;;;;31.05;19.67;;;4.50;99.90;;;;;;4971388;28;20086;-73
2021/11/19 10:27:51;;;;;;;27.42;17.80;;;4.60;99.90;;;;;;4971999;28;20113;-73
2021/11/19 10:30:42;;;;;;;30.92;18.88;;;4.70;99.90;;;;;;4964249;28;20050;-72
2021/11/19 10:33:23;;;;;;;28.73;17.80;;;4.70;99.90;;;;;;4973476;28;20074;-73
2021/11/19 10:36:13;;;;;;;30.60;17.95;;;4.80;99.90;;;;;;4974240;28;20130;-73
2021/11/19 10:39:08;;;;;;;31.55;18.95;;;4.80;99.90;;;;;;4990263;28;20406;-73
2021/11/19 10:42:05;;;;;;;35.67;20.27;;;4.90;99.90;;;;;;4989329;28;20049;-73
2021/11/19 10:45:07;;;;;;;31.70;18.63;;;4.90;99.90;;;;;;4990142;28;20065;-73
2021/11/19 10:47:56;;;;;;;30.05;18.25;;;4.90;99.90;;;;;;4987348;28;20145;-73
2021/11/19 10:50:54;;;;;;;27.00;17.70;;;4.90;99.90;;;;;;4966491;28;20141;-73
2021/11/19 10:53:39;;;;;;;28.08;19.02;;;5.00;99.90;;;;;;4975094;28;20125;-73
2021/11/19 10:56:30;;;;;;;31.30;18.30;;;5.00;99.90;;;;;;4975199;28;20560;-73
2021/11/19 10:59:23;;;;;;;31.38;19.50;;;4.90;99.90;;;;;;4987897;28;20050;-73
2021/11/19 11:02:05;;;;;;;30.92;19.20;;;5.00;99.90;;;;;;4975019;28;20054;-73
2021/11/19 11:04:56;;;;;;;36.00;19.50;;;5.10;99.90;;;;;;4989544;28;20101;-73
2021/11/19 11:07:31;;;;;;;29.50;18.95;;;5.10;99.90;;;;;;4990271;28;20134;-73
2021/11/19 11:10:14;;;;;;;29.42;18.67;;;5.20;99.90;;;;;;4990128;28;20047;-73
2021/11/19 11:12:51;;;;;;;30.52;18.08;;;5.30;99.90;;;;;;4969099;28;20047;-73
2021/11/19 11:15:23;;;;;;;32.90;18.95;;;5.40;99.90;;;;;;4974843;28;20386;-73
2021/11/19 11:18:15;;;;;;;27.30;18.08;;;5.50;99.90;;;;;;4974703;28;20417;-73
2021/11/19 11:20:53;;;;;;;26.83;17.10;;;5.50;99.90;;;;;;4975394;28;20126;-73
2021/11/19 11:23:34;;;;;;;26.80;16.48;;;5.60;99.90;;;;;;4956476;28;20043;-73
2021/11/19 11:26:27;;;;;;;28.13;16.42;;;5.70;99.90;;;;;;4970652;28;20137;-73
2021/11/19 11:29:08;;;;;;;27.45;16.35;;;5.80;99.90;;;;;;4981071;28;20070;-73
2021/11/19 11:31:48;;;;;;;27.60;17.60;;;5.90;99.90;;;;;;4989360;28;20146;-73
2021/11/19 11:34:27;;;;;;;29.15;17.88;;;6.00;99.90;;;;;;4989566;28;20105;-73
2021/11/19 11:37:16;;;;;;;26.42;15.45;;;6.10;99.90;;;;;;4989451;28;20125;-73
2021/11/19 11:40:17;;;;;;;26.50;15.63;;;6.10;99.90;;;;;;4975115;28;20039;-73
2021/11/19 11:42:54;;;;;;;23.35;14.88;;;6.20;99.90;;;;;;4973344;28;20133;-73
2021/11/19 11:45:31;;;;;;;23.17;15.55;;;6.30;99.90;;;;;;4974397;28;20057;-73
2021/11/19 11:48:29;;;;;;;22.90;15.30;;;6.30;99.90;;;;;;4970140;28;20110;-73
2021/11/19 11:51:12;;;;;;;23.38;15.57;;;6.40;99.90;;;;;;4956360;28;20046;-73
2021/11/19 11:54:13;;;;;;;20.08;14.50;;;6.50;99.90;;;;;;4972356;28;20039;-73
2021/11/19 11:56:44;;;;;;;22.50;14.52;;;6.50;99.90;;;;;;4988806;28;20129;-73
2021/11/19 11:59:31;;;;;;;23.10;15.95;;;6.50;99.90;;;;;;4972454;28;20049;-73
2021/11/19 12:02:05;;;;;;;24.77;15.90;;;6.50;99.90;;;;;;4964013;28;20062;-73
2021/11/19 12:04:50;;;;;;;26.83;15.63;;;6.50;99.90;;;;;;4972207;28;20074;-72
2021/11/19 12:07:59;;;;;;;24.08;15.50;;;6.60;99.90;;;;;;4985656;28;20047;-73
2021/11/19 12:10:37;;;;;;;22.00;15.20;;;6.70;99.90;;;;;;4988556;28;20118;-73
2021/11/19 12:13:24;;;;;;;25.03;16.40;;;6.80;99.90;;;;;;4972996;28;20073;-73
2021/11/19 12:16:10;;;;;;;23.65;15.75;;;6.80;99.90;;;;;;4975099;28;20049;-73
2021/11/19 12:19:04;;;;;;;20.05;14.90;;;7.00;99.90;;;;;;4972131;28;20039;-73
2021/11/19 12:21:49;;;;;;;26.67;15.60;;;7.10;99.90;;;;;;4964689;28;20131;-73
2021/11/19 12:24:22;;;;;;;21.00;14.27;;;7.10;99.90;;;;;;4967256;28;20133;-72
2021/11/19 12:27:00;;;;;;;22.50;15.40;;;7.10;99.90;;;;;;4957212;28;20078;-72
2021/11/19 12:29:58;;;;;;;23.27;15.50;;;7.10;99.90;;;;;;4974283;28;20081;-73
2021/11/19 12:32:36;;;;;;;21.60;15.55;;;7.10;99.90;;;;;;4971400;28;20066;-73
2021/11/19 12:35:24;;;;;;;22.23;16.73;;;7.10;99.90;;;;;;4985115;28;20078;-73
2021/11/19 12:38:14;;;;;;;23.42;15.57;;;7.30;99.90;;;;;;4986545;28;20043;-73
2021/11/19 12:40:52;;;;;;;26.13;16.92;;;7.30;99.90;;;;;;4988306;28;20137;-73
2021/11/19 12:43:33;;;;;;;22.55;15.00;;;7.30;99.90;;;;;;4956281;28;20078;-73
2021/11/19 12:46:08;;;;;;;21.13;14.73;;;7.30;99.90;;;;;;4972215;28;20047;-73
2021/11/19 12:49:12;;;;;;;23.02;15.27;;;7.40;99.90;;;;;;4972352;28;20054;-72
2021/11/19 12:51:53;;;;;;;20.95;15.35;;;7.40;99.90;;;;;;4967124;28;20677;-72
2021/11/19 12:54:35;;;;;;;22.55;15.18;;;7.40;99.90;;;;;;4969315;28;20078;-73
2021/11/19 12:57:33;;;;;;;22.92;16.33;;;7.40;99.90;;;;;;4968680;28;20101;-72
2021/11/19 13:00:04;;;;;;;22.00;14.98;;;7.30;99.90;;;;;;4980218;28;20049;-73
2021/11/19 13:03:03;;;;;;;21.60;14.50;;;7.20;99.90;;;;;;4984354;28;20082;-73
2021/11/19 13:05:59;;;;;;;23.75;14.57;;;7.20;99.90;;;;;;4952481;28;20577;-73
2021/11/19 13:08:39;;;;;;;23.30;15.52;;;7.20;99.90;;;;;;4984856;28;20090;-73
2021/11/19 13:11:30;;;;;;;23.33;15.15;;;7.20;99.90;;;;;;4952580;29;20134;-73
2021/11/19 13:14:24;;;;;;;20.90;15.15;;;7.20;99.90;;;;;;4953268;28;20462;-72
2021/11/19 13:17:02;;;;;;;22.38;15.23;;;7.20;99.90;;;;;;4952390;29;20137;-73
2021/11/19 13:19:33;;;;;;;26.98;16.25;;;7.20;99.90;;;;;;4983314;28;20597;-73
2021/11/19 13:22:19;;;;;;;23.08;15.15;;;7.10;99.90;;;;;;4968033;28;20077;-73
2021/11/19 13:25:00;;;;;;;25.08;14.55;;;7.20;99.90;;;;;;4983273;28;20710;-73
2021/11/19 13:27:50;;;;;;;23.00;14.95;;;7.20;99.90;;;;;;4936220;29;20153;-73
2021/11/19 13:30:34;;;;;;;24.63;17.10;;;7.10;99.90;;;;;;4987618;28;20082;-73
2021/11/19 13:33:11;;;;;;;25.25;15.57;;;7.10;99.90;;;;;;4972362;28;20073;-72
2021/11/19 13:35:45;;;;;;;31.23;16.40;;;7.20;99.90;;;;;;4967682;28;20524;-73